Главная страница
METAR-TAF:

METAR-TAF

Аэропорты :

Эрншёльдсвик, Швеция

широта: 63-24N, долгота: 018-58E, высота над уровнем моря: 103 м

Текущие метеонаблюдения

Эта сводка был подготовлена 39 минут назад, в 07:50 UTC
Ветер 6 Узел от северо-северо-восточный, изменяющийся между северный и восточно-северо-восточный
Температура -1°C
Влажность 100%
Давление 1012 hPa
Видимость: 3800 м
Снежные зерна

METAR: ESNO 170750Z AUTO 02006KT 360V060 3800 SG OVC004/// M01/M01 Q1012

Время: 09:29 (08:29 UTC)


TAF: отсутствует

Метеонаблюдения и прогнозы для более 4000 аэропортов (сводки METAR и TAF).

Имеющиеся станции представлены на карте желтыми и красными точками.

Чтобы увидеть название станции, наведите на нее мышь.

Затем щелкните, чтобы увидеть метеонаблюдения и метеопрогнозы.

Управление картой: чтобы увеличить масштаб, щелкните зеленые кнопки с черным крестиком; чтобы уменьшить масштаб, щелкните зеленую кнопку с тире; для просмотра соседних карт щелкайте зеленые стрелки.


METAR-TAF: